sensor_id;sensor_type;location;lat;lon;timestamp;temperature;humidity
7472;DHT22;3777;48.722;8.110;2023-05-29T00:02:19;17.10;99.90
7472;DHT22;3777;48.722;8.110;2023-05-29T00:04:46;17.10;99.90
7472;DHT22;3777;48.722;8.110;2023-05-29T00:07:13;17.10;99.90
7472;DHT22;3777;48.722;8.110;2023-05-29T00:09:39;17.20;99.90
7472;DHT22;3777;48.722;8.110;2023-05-29T00:12:07;17.20;99.90
7472;DHT22;3777;48.722;8.110;2023-05-29T00:14:34;17.20;99.90
7472;DHT22;3777;48.722;8.110;2023-05-29T00:17:24;17.20;99.90
7472;DHT22;3777;48.722;8.110;2023-05-29T00:19:51;17.20;99.90
7472;DHT22;3777;48.722;8.110;2023-05-29T00:22:18;17.20;99.90
7472;DHT22;3777;48.722;8.110;2023-05-29T00:24:45;17.10;99.90
7472;DHT22;3777;48.722;8.110;2023-05-29T00:27:12;17.10;99.90
7472;DHT22;3777;48.722;8.110;2023-05-29T00:29:39;17.10;99.90
7472;DHT22;3777;48.722;8.110;2023-05-29T00:32:06;17.10;99.90
7472;DHT22;3777;48.722;8.110;2023-05-29T00:34:34;17.00;99.90
7472;DHT22;3777;48.722;8.110;2023-05-29T00:37:02;17.00;99.90
7472;DHT22;3777;48.722;8.110;2023-05-29T00:39:29;16.90;99.90
7472;DHT22;3777;48.722;8.110;2023-05-29T00:41:56;16.90;99.90
7472;DHT22;3777;48.722;8.110;2023-05-29T00:44:23;16.90;99.90
7472;DHT22;3777;48.722;8.110;2023-05-29T00:46:52;16.90;99.90
7472;DHT22;3777;48.722;8.110;2023-05-29T00:49:21;16.80;99.90
7472;DHT22;3777;48.722;8.110;2023-05-29T00:51:51;16.80;99.90
7472;DHT22;3777;48.722;8.110;2023-05-29T00:54:21;16.80;99.90
7472;DHT22;3777;48.722;8.110;2023-05-29T00:56:50;16.80;99.90
7472;DHT22;3777;48.722;8.110;2023-05-29T00:59:17;16.70;99.90
7472;DHT22;3777;48.722;8.110;2023-05-29T01:01:47;16.70;99.90
7472;DHT22;3777;48.722;8.110;2023-05-29T01:04:16;16.60;99.90
7472;DHT22;3777;48.722;8.110;2023-05-29T01:06:43;16.50;99.90
7472;DHT22;3777;48.722;8.110;2023-05-29T01:09:12;16.50;99.90
7472;DHT22;3777;48.722;8.110;2023-05-29T01:11:45;16.40;99.90
7472;DHT22;3777;48.722;8.110;2023-05-29T01:14:20;16.30;99.90
7472;DHT22;3777;48.722;8.110;2023-05-29T01:16:58;16.30;99.90
7472;DHT22;3777;48.722;8.110;2023-05-29T01:19:44;16.20;99.90
7472;DHT22;3777;48.722;8.110;2023-05-29T01:22:17;16.10;99.90
7472;DHT22;3777;48.722;8.110;2023-05-29T01:24:49;16.10;99.90
7472;DHT22;3777;48.722;8.110;2023-05-29T01:27:21;16.00;99.90
7472;DHT22;3777;48.722;8.110;2023-05-29T01:29:52;16.00;99.90
7472;DHT22;3777;48.722;8.110;2023-05-29T01:32:20;15.90;99.90
7472;DHT22;3777;48.722;8.110;2023-05-29T01:34:48;15.90;99.90
7472;DHT22;3777;48.722;8.110;2023-05-29T01:37:15;15.80;99.90
7472;DHT22;3777;48.722;8.110;2023-05-29T01:39:42;15.80;99.90
7472;DHT22;3777;48.722;8.110;2023-05-29T01:42:09;15.70;99.90
7472;DHT22;3777;48.722;8.110;2023-05-29T01:44:38;15.70;99.90
7472;DHT22;3777;48.722;8.110;2023-05-29T01:47:05;15.60;99.90
7472;DHT22;3777;48.722;8.110;2023-05-29T01:49:33;15.60;99.90
7472;DHT22;3777;48.722;8.110;2023-05-29T01:52:01;15.50;99.90
7472;DHT22;3777;48.722;8.110;2023-05-29T01:54:28;15.50;99.90
7472;DHT22;3777;48.722;8.110;2023-05-29T01:56:55;15.40;99.90
7472;DHT22;3777;48.722;8.110;2023-05-29T01:59:23;15.40;99.90
7472;DHT22;3777;48.722;8.110;2023-05-29T02:01:52;15.40;99.90
7472;DHT22;3777;48.722;8.110;2023-05-29T02:04:19;15.30;99.90
7472;DHT22;3777;48.722;8.110;2023-05-29T02:06:46;15.30;99.90
7472;DHT22;3777;48.722;8.110;2023-05-29T02:09:13;15.30;99.90
7472;DHT22;3777;48.722;8.110;2023-05-29T02:11:40;15.20;99.90
7472;DHT22;3777;48.722;8.110;2023-05-29T02:14:11;15.20;99.90
7472;DHT22;3777;48.722;8.110;2023-05-29T02:16:38;15.20;99.90
7472;DHT22;3777;48.722;8.110;2023-05-29T02:19:07;15.20;99.90
7472;DHT22;3777;48.722;8.110;2023-05-29T02:21:37;15.20;99.90
7472;DHT22;3777;48.722;8.110;2023-05-29T02:24:04;15.20;99.90
7472;DHT22;3777;48.722;8.110;2023-05-29T02:26:32;15.20;99.90
7472;DHT22;3777;48.722;8.110;2023-05-29T02:28:59;15.20;99.90
7472;DHT22;3777;48.722;8.110;2023-05-29T02:31:26;15.20;99.90
7472;DHT22;3777;48.722;8.110;2023-05-29T02:33:53;15.20;99.90
7472;DHT22;3777;48.722;8.110;2023-05-29T02:36:21;15.20;99.90
7472;DHT22;3777;48.722;8.110;2023-05-29T02:38:48;15.20;99.90
7472;DHT22;3777;48.722;8.110;2023-05-29T02:41:15;15.20;99.90
7472;DHT22;3777;48.722;8.110;2023-05-29T02:43:42;15.20;99.90
7472;DHT22;3777;48.722;8.110;2023-05-29T02:46:09;15.20;99.90
7472;DHT22;3777;48.722;8.110;2023-05-29T02:48:36;15.20;99.90
7472;DHT22;3777;48.722;8.110;2023-05-29T02:51:03;15.20;99.90
7472;DHT22;3777;48.722;8.110;2023-05-29T02:53:32;15.10;99.90
7472;DHT22;3777;48.722;8.110;2023-05-29T02:55:59;15.10;99.90
7472;DHT22;3777;48.722;8.110;2023-05-29T02:58:26;15.10;99.90
7472;DHT22;3777;48.722;8.110;2023-05-29T03:00:53;15.10;99.90
7472;DHT22;3777;48.722;8.110;2023-05-29T03:03:20;15.10;99.90
7472;DHT22;3777;48.722;8.110;2023-05-29T03:05:47;15.10;99.90
7472;DHT22;3777;48.722;8.110;2023-05-29T03:08:13;15.00;99.90
7472;DHT22;3777;48.722;8.110;2023-05-29T03:10:42;15.00;99.90
7472;DHT22;3777;48.722;8.110;2023-05-29T03:13:10;15.00;99.90
7472;DHT22;3777;48.722;8.110;2023-05-29T03:15:37;15.00;99.90
7472;DHT22;3777;48.722;8.110;2023-05-29T03:18:04;15.00;99.90
7472;DHT22;3777;48.722;8.110;2023-05-29T03:20:31;15.00;99.90
7472;DHT22;3777;48.722;8.110;2023-05-29T03:22:58;15.00;99.90
7472;DHT22;3777;48.722;8.110;2023-05-29T03:25:25;14.90;99.90
7472;DHT22;3777;48.722;8.110;2023-05-29T03:27:53;14.90;99.90
7472;DHT22;3777;48.722;8.110;2023-05-29T03:30:20;14.90;99.90
7472;DHT22;3777;48.722;8.110;2023-05-29T03:32:47;14.80;99.90
7472;DHT22;3777;48.722;8.110;2023-05-29T03:35:14;14.80;99.90
7472;DHT22;3777;48.722;8.110;2023-05-29T03:37:41;14.80;99.90
7472;DHT22;3777;48.722;8.110;2023-05-29T03:40:08;14.80;99.90
7472;DHT22;3777;48.722;8.110;2023-05-29T03:42:36;14.70;99.90
7472;DHT22;3777;48.722;8.110;2023-05-29T03:45:05;14.80;99.90
7472;DHT22;3777;48.722;8.110;2023-05-29T03:47:32;14.80;99.90
7472;DHT22;3777;48.722;8.110;2023-05-29T03:49:59;14.80;99.90
7472;DHT22;3777;48.722;8.110;2023-05-29T03:52:26;14.80;99.90
7472;DHT22;3777;48.722;8.110;2023-05-29T03:54:53;14.80;99.90
7472;DHT22;3777;48.722;8.110;2023-05-29T03:57:20;14.80;99.90
7472;DHT22;3777;48.722;8.110;2023-05-29T03:59:47;14.80;99.90
7472;DHT22;3777;48.722;8.110;2023-05-29T04:02:15;14.90;99.90
7472;DHT22;3777;48.722;8.110;2023-05-29T04:04:42;14.90;99.90
7472;DHT22;3777;48.722;8.110;2023-05-29T04:07:09;14.90;99.90
7472;DHT22;3777;48.722;8.110;2023-05-29T04:09:36;14.90;99.90
7472;DHT22;3777;48.722;8.110;2023-05-29T04:12:04;15.00;99.90
7472;DHT22;3777;48.722;8.110;2023-05-29T04:14:31;15.00;99.90
7472;DHT22;3777;48.722;8.110;2023-05-29T04:16:58;15.10;99.90
7472;DHT22;3777;48.722;8.110;2023-05-29T04:19:26;15.10;99.90
7472;DHT22;3777;48.722;8.110;2023-05-29T04:21:53;15.20;99.90
7472;DHT22;3777;48.722;8.110;2023-05-29T04:24:20;15.20;99.90
7472;DHT22;3777;48.722;8.110;2023-05-29T04:26:47;15.30;99.90
7472;DHT22;3777;48.722;8.110;2023-05-29T04:29:14;15.40;99.90
7472;DHT22;3777;48.722;8.110;2023-05-29T04:31:41;15.50;99.90
7472;DHT22;3777;48.722;8.110;2023-05-29T04:34:08;15.50;99.90
7472;DHT22;3777;48.722;8.110;2023-05-29T04:36:37;15.50;99.90
7472;DHT22;3777;48.722;8.110;2023-05-29T04:39:04;15.50;99.90
7472;DHT22;3777;48.722;8.110;2023-05-29T04:41:31;15.60;99.90
7472;DHT22;3777;48.722;8.110;2023-05-29T04:43:58;15.60;99.90
7472;DHT22;3777;48.722;8.110;2023-05-29T04:46:25;15.70;99.90
7472;DHT22;3777;48.722;8.110;2023-05-29T04:48:52;15.80;99.90
7472;DHT22;3777;48.722;8.110;2023-05-29T04:51:19;15.90;99.90
7472;DHT22;3777;48.722;8.110;2023-05-29T04:53:49;15.90;99.90
7472;DHT22;3777;48.722;8.110;2023-05-29T04:56:17;16.00;99.90
7472;DHT22;3777;48.722;8.110;2023-05-29T04:58:44;16.10;99.90
7472;DHT22;3777;48.722;8.110;2023-05-29T05:01:11;16.20;99.90
7472;DHT22;3777;48.722;8.110;2023-05-29T05:03:40;16.30;99.90
7472;DHT22;3777;48.722;8.110;2023-05-29T05:06:07;16.40;99.90
7472;DHT22;3777;48.722;8.110;2023-05-29T05:08:34;16.50;99.90
7472;DHT22;3777;48.722;8.110;2023-05-29T05:11:03;16.60;99.90
7472;DHT22;3777;48.722;8.110;2023-05-29T05:13:31;16.70;99.90
7472;DHT22;3777;48.722;8.110;2023-05-29T05:15:58;16.90;99.90
7472;DHT22;3777;48.722;8.110;2023-05-29T05:18:26;17.00;99.90
7472;DHT22;3777;48.722;8.110;2023-05-29T05:20:53;17.10;99.90
7472;DHT22;3777;48.722;8.110;2023-05-29T05:23:20;17.20;99.90
7472;DHT22;3777;48.722;8.110;2023-05-29T05:25:47;17.30;99.90
7472;DHT22;3777;48.722;8.110;2023-05-29T05:28:15;17.50;99.90
7472;DHT22;3777;48.722;8.110;2023-05-29T05:30:42;17.70;99.90
7472;DHT22;3777;48.722;8.110;2023-05-29T05:33:09;17.80;99.90
7472;DHT22;3777;48.722;8.110;2023-05-29T05:35:36;18.00;99.90
7472;DHT22;3777;48.722;8.110;2023-05-29T05:38:03;18.30;99.90
7472;DHT22;3777;48.722;8.110;2023-05-29T05:40:29;18.50;99.90
7472;DHT22;3777;48.722;8.110;2023-05-29T05:42:56;18.80;99.90
7472;DHT22;3777;48.722;8.110;2023-05-29T05:45:25;19.20;99.90
7472;DHT22;3777;48.722;8.110;2023-05-29T05:47:52;19.40;99.90
7472;DHT22;3777;48.722;8.110;2023-05-29T05:50:19;19.60;99.90
7472;DHT22;3777;48.722;8.110;2023-05-29T05:52:46;19.80;99.90
7472;DHT22;3777;48.722;8.110;2023-05-29T05:55:13;20.00;99.90
7472;DHT22;3777;48.722;8.110;2023-05-29T05:57:41;20.40;99.90
7472;DHT22;3777;48.722;8.110;2023-05-29T06:00:09;20.50;99.90
7472;DHT22;3777;48.722;8.110;2023-05-29T06:02:38;20.90;99.90
7472;DHT22;3777;48.722;8.110;2023-05-29T06:05:07;21.10;99.90
7472;DHT22;3777;48.722;8.110;2023-05-29T06:07:35;21.70;99.90
7472;DHT22;3777;48.722;8.110;2023-05-29T06:10:02;22.40;99.50
7472;DHT22;3777;48.722;8.110;2023-05-29T06:12:29;22.80;98.10
7472;DHT22;3777;48.722;8.110;2023-05-29T06:14:56;23.40;97.60
7472;DHT22;3777;48.722;8.110;2023-05-29T06:17:23;23.90;95.30
7472;DHT22;3777;48.722;8.110;2023-05-29T06:19:52;23.70;94.10
7472;DHT22;3777;48.722;8.110;2023-05-29T06:22:20;23.90;93.40
7472;DHT22;3777;48.722;8.110;2023-05-29T06:24:47;23.80;92.70
7472;DHT22;3777;48.722;8.110;2023-05-29T06:27:14;23.50;92.30
7472;DHT22;3777;48.722;8.110;2023-05-29T06:29:40;23.30;92.30
7472;DHT22;3777;48.722;8.110;2023-05-29T06:32:07;23.40;92.00
7472;DHT22;3777;48.722;8.110;2023-05-29T06:34:34;23.30;91.30
7472;DHT22;3777;48.722;8.110;2023-05-29T06:37:03;23.40;91.30
7472;DHT22;3777;48.722;8.110;2023-05-29T06:39:30;23.30;90.50
7472;DHT22;3777;48.722;8.110;2023-05-29T06:41:57;23.20;90.60
7472;DHT22;3777;48.722;8.110;2023-05-29T06:44:24;23.20;90.50
7472;DHT22;3777;48.722;8.110;2023-05-29T06:46:51;23.00;90.30
7472;DHT22;3777;48.722;8.110;2023-05-29T06:49:18;22.90;90.50
7472;DHT22;3777;48.722;8.110;2023-05-29T06:51:45;23.50;90.10
7472;DHT22;3777;48.722;8.110;2023-05-29T06:54:13;23.50;89.80
7472;DHT22;3777;48.722;8.110;2023-05-29T06:56:40;23.90;89.00
7472;DHT22;3777;48.722;8.110;2023-05-29T06:59:07;24.20;85.90
7472;DHT22;3777;48.722;8.110;2023-05-29T07:01:34;24.40;85.00
7472;DHT22;3777;48.722;8.110;2023-05-29T07:04:01;24.50;83.90
7472;DHT22;3777;48.722;8.110;2023-05-29T07:06:28;24.40;82.20
7472;DHT22;3777;48.722;8.110;2023-05-29T07:08:55;24.70;82.40
7472;DHT22;3777;48.722;8.110;2023-05-29T07:11:24;24.30;82.10
7472;DHT22;3777;48.722;8.110;2023-05-29T07:13:51;24.10;83.40
7472;DHT22;3777;48.722;8.110;2023-05-29T07:16:18;24.80;81.60
7472;DHT22;3777;48.722;8.110;2023-05-29T07:18:45;24.90;81.30
7472;DHT22;3777;48.722;8.110;2023-05-29T07:21:12;25.60;79.90
7472;DHT22;3777;48.722;8.110;2023-05-29T07:23:39;26.10;77.30
7472;DHT22;3777;48.722;8.110;2023-05-29T07:26:06;25.60;77.00
7472;DHT22;3777;48.722;8.110;2023-05-29T07:28:35;25.50;77.90
7472;DHT22;3777;48.722;8.110;2023-05-29T07:31:02;25.70;76.70
7472;DHT22;3777;48.722;8.110;2023-05-29T07:33:29;24.90;76.30
7472;DHT22;3777;48.722;8.110;2023-05-29T07:35:56;24.60;78.40
7472;DHT22;3777;48.722;8.110;2023-05-29T07:38:22;24.60;78.00
7472;DHT22;3777;48.722;8.110;2023-05-29T07:40:49;24.60;79.70
7472;DHT22;3777;48.722;8.110;2023-05-29T07:43:16;24.80;79.00
7472;DHT22;3777;48.722;8.110;2023-05-29T07:45:45;24.40;78.30
7472;DHT22;3777;48.722;8.110;2023-05-29T07:48:12;24.20;79.90
7472;DHT22;3777;48.722;8.110;2023-05-29T07:50:39;24.50;80.80
7472;DHT22;3777;48.722;8.110;2023-05-29T07:53:06;25.10;79.90
7472;DHT22;3777;48.722;8.110;2023-05-29T07:55:34;25.60;77.10
7472;DHT22;3777;48.722;8.110;2023-05-29T07:58:01;25.80;76.20
7472;DHT22;3777;48.722;8.110;2023-05-29T08:00:28;26.00;74.60
7472;DHT22;3777;48.722;8.110;2023-05-29T08:02:56;26.20;73.00
7472;DHT22;3777;48.722;8.110;2023-05-29T08:05:23;25.90;72.30
7472;DHT22;3777;48.722;8.110;2023-05-29T08:07:50;26.20;72.80
7472;DHT22;3777;48.722;8.110;2023-05-29T08:10:17;26.40;70.40
7472;DHT22;3777;48.722;8.110;2023-05-29T08:12:44;27.20;70.60
7472;DHT22;3777;48.722;8.110;2023-05-29T08:15:12;27.60;67.70
7472;DHT22;3777;48.722;8.110;2023-05-29T08:17:39;27.40;67.70
7472;DHT22;3777;48.722;8.110;2023-05-29T08:20:09;27.90;67.60
7472;DHT22;3777;48.722;8.110;2023-05-29T08:22:36;28.40;65.50
7472;DHT22;3777;48.722;8.110;2023-05-29T08:25:03;28.70;63.80
7472;DHT22;3777;48.722;8.110;2023-05-29T08:27:31;28.90;63.30
7472;DHT22;3777;48.722;8.110;2023-05-29T08:29:58;29.50;60.50
7472;DHT22;3777;48.722;8.110;2023-05-29T08:32:25;29.90;58.60
7472;DHT22;3777;48.722;8.110;2023-05-29T08:34:51;30.50;58.10
7472;DHT22;3777;48.722;8.110;2023-05-29T08:37:20;31.10;57.10
7472;DHT22;3777;48.722;8.110;2023-05-29T08:39:47;31.70;55.70
7472;DHT22;3777;48.722;8.110;2023-05-29T08:42:20;31.60;52.60
7472;DHT22;3777;48.722;8.110;2023-05-29T08:44:47;31.60;51.40
7472;DHT22;3777;48.722;8.110;2023-05-29T08:47:16;31.20;51.80
7472;DHT22;3777;48.722;8.110;2023-05-29T08:49:51;31.50;51.20
7472;DHT22;3777;48.722;8.110;2023-05-29T08:52:22;31.70;50.10
7472;DHT22;3777;48.722;8.110;2023-05-29T08:54:49;32.60;49.40
7472;DHT22;3777;48.722;8.110;2023-05-29T08:57:17;33.20;48.60
7472;DHT22;3777;48.722;8.110;2023-05-29T08:59:44;32.40;47.90
7472;DHT22;3777;48.722;8.110;2023-05-29T09:02:13;32.50;47.70
7472;DHT22;3777;48.722;8.110;2023-05-29T09:04:41;33.40;46.90
7472;DHT22;3777;48.722;8.110;2023-05-29T09:07:10;34.10;45.70
7472;DHT22;3777;48.722;8.110;2023-05-29T09:09:39;34.60;44.90
7472;DHT22;3777;48.722;8.110;2023-05-29T09:12:07;35.40;42.80
7472;DHT22;3777;48.722;8.110;2023-05-29T09:14:36;35.30;41.60
7472;DHT22;3777;48.722;8.110;2023-05-29T09:17:05;34.70;41.60
7472;DHT22;3777;48.722;8.110;2023-05-29T09:19:34;35.00;41.50
7472;DHT22;3777;48.722;8.110;2023-05-29T09:22:03;34.80;41.40
7472;DHT22;3777;48.722;8.110;2023-05-29T09:24:31;34.40;41.00
7472;DHT22;3777;48.722;8.110;2023-05-29T09:27:01;34.20;41.70
7472;DHT22;3777;48.722;8.110;2023-05-29T09:29:31;34.10;42.40
7472;DHT22;3777;48.722;8.110;2023-05-29T09:31:59;34.40;40.90
7472;DHT22;3777;48.722;8.110;2023-05-29T09:34:26;33.60;41.30
7472;DHT22;3777;48.722;8.110;2023-05-29T09:36:53;33.30;42.50
7472;DHT22;3777;48.722;8.110;2023-05-29T09:39:22;33.30;42.50
7472;DHT22;3777;48.722;8.110;2023-05-29T09:41:49;33.70;42.00
7472;DHT22;3777;48.722;8.110;2023-05-29T09:44:17;33.40;42.50
7472;DHT22;3777;48.722;8.110;2023-05-29T09:46:48;33.70;42.40
7472;DHT22;3777;48.722;8.110;2023-05-29T09:49:15;34.10;42.50
7472;DHT22;3777;48.722;8.110;2023-05-29T09:51:46;34.30;42.10
7472;DHT22;3777;48.722;8.110;2023-05-29T09:54:17;34.20;41.50
7472;DHT22;3777;48.722;8.110;2023-05-29T09:56:45;34.30;40.70
7472;DHT22;3777;48.722;8.110;2023-05-29T09:59:14;33.40;41.30
7472;DHT22;3777;48.722;8.110;2023-05-29T10:01:43;33.90;41.20
7472;DHT22;3777;48.722;8.110;2023-05-29T10:04:11;33.90;40.90
7472;DHT22;3777;48.722;8.110;2023-05-29T10:06:41;34.20;40.90
7472;DHT22;3777;48.722;8.110;2023-05-29T10:09:12;34.60;40.80
7472;DHT22;3777;48.722;8.110;2023-05-29T10:11:43;34.00;40.20
7472;DHT22;3777;48.722;8.110;2023-05-29T10:14:14;33.90;40.70
7472;DHT22;3777;48.722;8.110;2023-05-29T10:16:46;34.40;40.60
7472;DHT22;3777;48.722;8.110;2023-05-29T10:19:19;34.80;39.80
7472;DHT22;3777;48.722;8.110;2023-05-29T10:21:49;35.40;40.20
7472;DHT22;3777;48.722;8.110;2023-05-29T10:24:18;36.40;38.90
7472;DHT22;3777;48.722;8.110;2023-05-29T10:26:48;36.00;38.70
7472;DHT22;3777;48.722;8.110;2023-05-29T10:29:25;36.60;38.00
7472;DHT22;3777;48.722;8.110;2023-05-29T10:32:04;36.30;37.90
7472;DHT22;3777;48.722;8.110;2023-05-29T10:34:39;36.20;38.20
7472;DHT22;3777;48.722;8.110;2023-05-29T10:37:09;36.40;38.00
7472;DHT22;3777;48.722;8.110;2023-05-29T10:39:40;36.50;37.70
7472;DHT22;3777;48.722;8.110;2023-05-29T10:42:40;36.30;37.90
7472;DHT22;3777;48.722;8.110;2023-05-29T10:45:08;36.10;38.20
7472;DHT22;3777;48.722;8.110;2023-05-29T10:47:37;36.20;37.60
7472;DHT22;3777;48.722;8.110;2023-05-29T10:50:05;35.30;38.10
7472;DHT22;3777;48.722;8.110;2023-05-29T10:52:32;35.10;38.20
7472;DHT22;3777;48.722;8.110;2023-05-29T10:55:00;34.60;39.30
7472;DHT22;3777;48.722;8.110;2023-05-29T10:57:29;34.60;38.80
7472;DHT22;3777;48.722;8.110;2023-05-29T11:00:06;34.30;38.60
7472;DHT22;3777;48.722;8.110;2023-05-29T11:02:40;33.20;40.20
7472;DHT22;3777;48.722;8.110;2023-05-29T11:05:21;32.40;41.50
7472;DHT22;3777;48.722;8.110;2023-05-29T11:07:55;31.10;42.30
7472;DHT22;3777;48.722;8.110;2023-05-29T11:10:44;30.10;44.10
7472;DHT22;3777;48.722;8.110;2023-05-29T11:13:23;29.30;45.40
7472;DHT22;3777;48.722;8.110;2023-05-29T11:16:14;28.90;46.40
7472;DHT22;3777;48.722;8.110;2023-05-29T11:18:47;28.60;47.10
7472;DHT22;3777;48.722;8.110;2023-05-29T11:21:31;28.20;47.60
7472;DHT22;3777;48.722;8.110;2023-05-29T11:24:00;27.90;48.10
7472;DHT22;3777;48.722;8.110;2023-05-29T11:26:30;27.60;48.70
7472;DHT22;3777;48.722;8.110;2023-05-29T11:28:58;27.50;49.10
7472;DHT22;3777;48.722;8.110;2023-05-29T11:31:27;27.50;48.70
7472;DHT22;3777;48.722;8.110;2023-05-29T11:33:59;27.40;49.40
7472;DHT22;3777;48.722;8.110;2023-05-29T11:36:30;27.40;49.30
7472;DHT22;3777;48.722;8.110;2023-05-29T11:38:58;27.40;49.40
7472;DHT22;3777;48.722;8.110;2023-05-29T11:41:25;27.30;49.50
7472;DHT22;3777;48.722;8.110;2023-05-29T11:43:56;27.20;49.90
7472;DHT22;3777;48.722;8.110;2023-05-29T11:46:24;27.20;50.50
7472;DHT22;3777;48.722;8.110;2023-05-29T11:48:52;27.20;50.30
7472;DHT22;3777;48.722;8.110;2023-05-29T11:51:20;27.20;49.40
7472;DHT22;3777;48.722;8.110;2023-05-29T11:53:48;27.10;49.20
7472;DHT22;3777;48.722;8.110;2023-05-29T11:56:18;27.10;50.00
7472;DHT22;3777;48.722;8.110;2023-05-29T11:58:46;27.10;48.60
7472;DHT22;3777;48.722;8.110;2023-05-29T12:01:16;27.10;49.00
7472;DHT22;3777;48.722;8.110;2023-05-29T12:03:44;27.00;48.90
7472;DHT22;3777;48.722;8.110;2023-05-29T12:06:12;26.90;49.10
7472;DHT22;3777;48.722;8.110;2023-05-29T12:08:40;26.80;47.60
7472;DHT22;3777;48.722;8.110;2023-05-29T12:11:08;26.80;47.30
7472;DHT22;3777;48.722;8.110;2023-05-29T12:13:35;26.80;47.90
7472;DHT22;3777;48.722;8.110;2023-05-29T12:16:04;26.80;47.90
7472;DHT22;3777;48.722;8.110;2023-05-29T12:18:32;26.70;48.80
7472;DHT22;3777;48.722;8.110;2023-05-29T12:21:00;26.70;50.00
7472;DHT22;3777;48.722;8.110;2023-05-29T12:23:28;26.80;49.00
7472;DHT22;3777;48.722;8.110;2023-05-29T12:25:56;26.80;48.10
7472;DHT22;3777;48.722;8.110;2023-05-29T12:28:25;26.80;46.70
7472;DHT22;3777;48.722;8.110;2023-05-29T12:31:07;26.60;46.80
7472;DHT22;3777;48.722;8.110;2023-05-29T12:33:35;26.60;46.70
7472;DHT22;3777;48.722;8.110;2023-05-29T12:36:06;26.60;46.00
7472;DHT22;3777;48.722;8.110;2023-05-29T12:38:46;26.60;46.80
7472;DHT22;3777;48.722;8.110;2023-05-29T12:41:24;26.60;48.40
7472;DHT22;3777;48.722;8.110;2023-05-29T12:43:53;26.60;47.20
7472;DHT22;3777;48.722;8.110;2023-05-29T12:46:20;26.60;48.30
7472;DHT22;3777;48.722;8.110;2023-05-29T12:48:47;26.60;48.90
7472;DHT22;3777;48.722;8.110;2023-05-29T12:51:15;26.60;48.40
7472;DHT22;3777;48.722;8.110;2023-05-29T12:53:44;26.60;48.50
7472;DHT22;3777;48.722;8.110;2023-05-29T12:56:11;26.60;48.60
7472;DHT22;3777;48.722;8.110;2023-05-29T12:58:39;26.60;47.90
7472;DHT22;3777;48.722;8.110;2023-05-29T13:01:12;26.60;48.40
7472;DHT22;3777;48.722;8.110;2023-05-29T13:03:39;26.60;47.90
7472;DHT22;3777;48.722;8.110;2023-05-29T13:06:06;26.50;47.30
7472;DHT22;3777;48.722;8.110;2023-05-29T13:08:34;26.40;48.20
7472;DHT22;3777;48.722;8.110;2023-05-29T13:11:01;26.40;47.50
7472;DHT22;3777;48.722;8.110;2023-05-29T13:13:28;26.40;47.50
7472;DHT22;3777;48.722;8.110;2023-05-29T13:15:56;26.50;47.80
7472;DHT22;3777;48.722;8.110;2023-05-29T13:18:23;26.50;47.90
7472;DHT22;3777;48.722;8.110;2023-05-29T13:20:50;26.40;47.00
7472;DHT22;3777;48.722;8.110;2023-05-29T13:23:17;26.40;47.70
7472;DHT22;3777;48.722;8.110;2023-05-29T13:25:44;26.50;47.70
7472;DHT22;3777;48.722;8.110;2023-05-29T13:28:13;26.60;47.70
7472;DHT22;3777;48.722;8.110;2023-05-29T13:30:40;26.60;47.30
7472;DHT22;3777;48.722;8.110;2023-05-29T13:33:09;26.60;46.90
7472;DHT22;3777;48.722;8.110;2023-05-29T13:35:36;26.60;46.60
7472;DHT22;3777;48.722;8.110;2023-05-29T13:38:03;26.60;47.40
7472;DHT22;3777;48.722;8.110;2023-05-29T13:40:29;26.60;45.70
7472;DHT22;3777;48.722;8.110;2023-05-29T13:42:57;26.60;46.20
7472;DHT22;3777;48.722;8.110;2023-05-29T13:45:24;26.60;45.30
7472;DHT22;3777;48.722;8.110;2023-05-29T13:47:53;26.60;45.60
7472;DHT22;3777;48.722;8.110;2023-05-29T13:50:22;26.60;46.20
7472;DHT22;3777;48.722;8.110;2023-05-29T13:52:50;26.60;45.50
7472;DHT22;3777;48.722;8.110;2023-05-29T13:55:17;26.70;44.70
7472;DHT22;3777;48.722;8.110;2023-05-29T13:57:44;26.60;45.10
7472;DHT22;3777;48.722;8.110;2023-05-29T14:00:11;26.60;44.50
7472;DHT22;3777;48.722;8.110;2023-05-29T14:02:39;26.60;45.70
7472;DHT22;3777;48.722;8.110;2023-05-29T14:05:06;26.70;45.50
7472;DHT22;3777;48.722;8.110;2023-05-29T14:07:35;26.70;45.40
7472;DHT22;3777;48.722;8.110;2023-05-29T14:10:02;26.60;43.90
7472;DHT22;3777;48.722;8.110;2023-05-29T14:12:29;26.60;44.30
7472;DHT22;3777;48.722;8.110;2023-05-29T14:14:56;26.40;44.00
7472;DHT22;3777;48.722;8.110;2023-05-29T14:17:23;26.40;44.10
7472;DHT22;3777;48.722;8.110;2023-05-29T14:19:51;26.40;44.40
7472;DHT22;3777;48.722;8.110;2023-05-29T14:22:18;26.50;44.50
7472;DHT22;3777;48.722;8.110;2023-05-29T14:24:46;26.50;44.90
7472;DHT22;3777;48.722;8.110;2023-05-29T14:27:13;26.50;44.50
7472;DHT22;3777;48.722;8.110;2023-05-29T14:29:40;26.60;45.20
7472;DHT22;3777;48.722;8.110;2023-05-29T14:32:07;26.60;44.50
7472;DHT22;3777;48.722;8.110;2023-05-29T14:34:34;26.60;43.70
7472;DHT22;3777;48.722;8.110;2023-05-29T14:37:01;26.50;43.40
7472;DHT22;3777;48.722;8.110;2023-05-29T14:39:28;26.40;43.20
7472;DHT22;3777;48.722;8.110;2023-05-29T14:41:56;26.40;43.70
7472;DHT22;3777;48.722;8.110;2023-05-29T14:44:23;26.50;44.80
7472;DHT22;3777;48.722;8.110;2023-05-29T14:46:50;26.40;44.40
7472;DHT22;3777;48.722;8.110;2023-05-29T14:49:17;26.50;44.50
7472;DHT22;3777;48.722;8.110;2023-05-29T14:51:45;26.50;43.90
7472;DHT22;3777;48.722;8.110;2023-05-29T14:54:12;26.40;44.40
7472;DHT22;3777;48.722;8.110;2023-05-29T14:56:39;26.40;44.30
7472;DHT22;3777;48.722;8.110;2023-05-29T14:59:07;26.40;45.20
7472;DHT22;3777;48.722;8.110;2023-05-29T15:01:34;26.50;45.00
7472;DHT22;3777;48.722;8.110;2023-05-29T15:04:01;26.50;44.80
7472;DHT22;3777;48.722;8.110;2023-05-29T15:06:28;26.40;44.10
7472;DHT22;3777;48.722;8.110;2023-05-29T15:08:55;26.40;43.60
7472;DHT22;3777;48.722;8.110;2023-05-29T15:11:23;26.40;44.20
7472;DHT22;3777;48.722;8.110;2023-05-29T15:13:51;26.50;45.20
7472;DHT22;3777;48.722;8.110;2023-05-29T15:16:19;26.50;45.60
7472;DHT22;3777;48.722;8.110;2023-05-29T15:18:46;26.50;45.30
7472;DHT22;3777;48.722;8.110;2023-05-29T15:21:13;26.50;45.00
7472;DHT22;3777;48.722;8.110;2023-05-29T15:23:40;26.50;44.80
7472;DHT22;3777;48.722;8.110;2023-05-29T15:26:09;26.50;44.70
7472;DHT22;3777;48.722;8.110;2023-05-29T15:28:36;26.50;45.30
7472;DHT22;3777;48.722;8.110;2023-05-29T15:31:03;26.50;45.20
7472;DHT22;3777;48.722;8.110;2023-05-29T15:33:31;26.50;45.00
7472;DHT22;3777;48.722;8.110;2023-05-29T15:35:58;26.50;43.80
7472;DHT22;3777;48.722;8.110;2023-05-29T15:38:25;26.50;43.90
7472;DHT22;3777;48.722;8.110;2023-05-29T15:40:52;26.40;43.40
7472;DHT22;3777;48.722;8.110;2023-05-29T15:43:19;26.40;42.70
7472;DHT22;3777;48.722;8.110;2023-05-29T15:45:46;26.40;42.60
7472;DHT22;3777;48.722;8.110;2023-05-29T15:48:14;26.30;42.90
7472;DHT22;3777;48.722;8.110;2023-05-29T15:50:43;26.30;43.60
7472;DHT22;3777;48.722;8.110;2023-05-29T15:53:10;26.30;43.70
7472;DHT22;3777;48.722;8.110;2023-05-29T15:55:37;26.30;43.70
7472;DHT22;3777;48.722;8.110;2023-05-29T15:58:04;26.30;44.60
7472;DHT22;3777;48.722;8.110;2023-05-29T16:00:32;26.30;45.20
7472;DHT22;3777;48.722;8.110;2023-05-29T16:03:00;26.30;46.10
7472;DHT22;3777;48.722;8.110;2023-05-29T16:05:27;26.30;45.40
7472;DHT22;3777;48.722;8.110;2023-05-29T16:07:56;26.40;45.30
7472;DHT22;3777;48.722;8.110;2023-05-29T16:10:23;26.40;44.40